Aviation Digital Data Service (ADDS)

Output produced by METARs form (2053 UTC 29 May 2017)
found at http://www.aviationweather.gov/adds/metars/
 
TAF MTPP 291600Z 2918/3018 09015KT 9999 FEW030 
     PROB30 
     TEMPO 3000/305 27012KT 4500 TSRA SCT024CB 
     BECMG 3006/3009 VRB02KT 8000 NSW 
     FM301000 10008KT 9999 FEW024